createdAt,value
2022-08-28T00:00:40.279Z,100099.25
2022-08-28T00:03:09.599Z,100102.78
2022-08-28T00:05:39.535Z,100107.84
2022-08-28T00:08:09.386Z,100101.63
2022-08-28T00:10:40.523Z,100097.94
2022-08-28T00:13:09.848Z,100093.97
2022-08-28T00:15:39.412Z,100096.47
2022-08-28T00:18:09.009Z,100105.09
2022-08-28T00:20:38.280Z,100107.25
2022-08-28T00:23:07.426Z,100105.97
2022-08-28T00:25:36.571Z,100099.25
2022-08-28T00:28:10.457Z,100103.47
2022-08-28T00:30:43.199Z,100099.03
2022-08-28T00:33:14.911Z,100110.56
2022-08-28T00:35:43.543Z,100108.75
2022-08-28T00:38:13.549Z,100107.84
2022-08-28T00:40:44.672Z,100109.31
2022-08-28T00:43:35.682Z,100109.88
2022-08-28T00:46:06.986Z,100098.28
2022-08-28T00:48:36.830Z,100106.19
2022-08-28T00:51:23.095Z,100099.97
2022-08-28T00:53:54.647Z,100101.72
2022-08-28T00:56:25.399Z,100090.25
2022-08-28T00:58:57.963Z,100094.91
2022-08-28T01:01:28.813Z,100096.38
2022-08-28T01:03:57.447Z,100093.50
2022-08-28T01:06:25.489Z,100099.47
2022-08-28T01:08:54.601Z,100100.47
2022-08-28T01:11:23.612Z,100099.13
2022-08-28T01:13:56.949Z,100095.56
2022-08-28T01:16:32.972Z,100099.50
2022-08-28T01:19:03.779Z,100107.56
2022-08-28T01:21:41.388Z,100098.19
2022-08-28T01:24:14.457Z,100100.25
2022-08-28T01:26:44.705Z,100101.13
2022-08-28T01:29:13.617Z,100103.88
2022-08-28T01:31:43.133Z,100102.69
2022-08-28T01:34:13.707Z,100103.03
2022-08-28T01:36:42.326Z,100104.72
2022-08-28T01:39:17.031Z,100095.88
2022-08-28T01:41:47.427Z,100099.00
2022-08-28T01:44:18.137Z,100105.19
2022-08-28T01:46:47.276Z,100105.81
2022-08-28T01:49:15.821Z,100107.34
2022-08-28T01:51:44.761Z,100113.34
2022-08-28T01:54:14.450Z,100113.72
2022-08-28T01:56:45.007Z,100111.63
2022-08-28T01:59:15.375Z,100116.28
2022-08-28T02:01:45.269Z,100109.53
2022-08-28T02:04:13.660Z,100110.88
2022-08-28T02:06:42.653Z,100116.88
2022-08-28T02:09:14.623Z,100105.41
2022-08-28T02:11:47.591Z,100113.81
2022-08-28T02:14:16.377Z,100116.88
2022-08-28T02:16:44.402Z,100108.94
2022-08-28T02:19:13.231Z,100106.84
2022-08-28T02:21:42.126Z,100106.50
2022-08-28T02:24:10.205Z,100106.28
2022-08-28T02:26:38.210Z,100112.88
2022-08-28T02:29:07.897Z,100113.19
2022-08-28T02:31:36.079Z,100111.50
2022-08-28T02:34:04.631Z,100119.00
2022-08-28T02:36:33.846Z,100122.69
2022-08-28T02:39:01.866Z,100118.59
2022-08-28T02:41:29.833Z,100115.97
2022-08-28T02:43:57.846Z,100123.66
2022-08-28T02:46:27.827Z,100118.38
2022-08-28T02:48:56.312Z,100122.31
2022-08-28T02:51:25.127Z,100129.69
2022-08-28T02:53:53.331Z,100124.94
2022-08-28T02:56:21.327Z,100126.28
2022-08-28T02:58:49.296Z,100119.28
2022-08-28T03:01:17.375Z,100128.09
2022-08-28T03:03:47.691Z,100127.25
2022-08-28T03:06:16.031Z,100125.38
2022-08-28T03:08:44.661Z,100130.56
2022-08-28T03:11:13.458Z,100138.16
2022-08-28T03:13:42.339Z,100134.78
2022-08-28T03:16:10.631Z,100133.28
2022-08-28T03:18:38.935Z,100135.47
2022-08-28T03:21:09.796Z,100128.72
2022-08-28T03:23:37.587Z,100121.38
2022-08-28T03:26:07.971Z,100128.44
2022-08-28T03:28:39.458Z,100114.94
2022-08-28T03:31:07.872Z,100118.31
2022-08-28T03:33:36.766Z,100107.34
2022-08-28T03:36:05.777Z,100108.69
2022-08-28T03:38:35.742Z,100117.91
2022-08-28T03:41:03.792Z,100118.69
2022-08-28T03:43:32.367Z,100105.75
2022-08-28T03:46:02.854Z,100114.47
2022-08-28T03:48:33.664Z,100119.44
2022-08-28T03:51:02.645Z,100114.63
2022-08-28T03:53:31.012Z,100122.47
2022-08-28T03:56:00.984Z,100124.56
2022-08-28T03:58:30.619Z,100122.97
2022-08-28T04:00:58.807Z,100123.28
2022-08-28T04:03:27.149Z,100120.75
2022-08-28T04:05:55.230Z,100120.50
2022-08-28T04:08:24.030Z,100121.84
2022-08-28T04:10:52.407Z,100129.69
2022-08-28T04:13:23.261Z,100130.50
2022-08-28T04:15:58.840Z,100132.44
2022-08-28T04:18:27.873Z,100139.00
2022-08-28T04:21:00.284Z,100132.00
2022-08-28T04:23:28.250Z,100130.50
2022-08-28T04:25:57.063Z,100134.72
2022-08-28T04:28:26.998Z,100130.34
2022-08-28T04:30:57.089Z,100134.84
2022-08-28T04:33:28.397Z,100136.28
2022-08-28T04:35:57.120Z,100141.22
2022-08-28T04:38:25.586Z,100133.22
2022-08-28T04:40:53.370Z,100149.28
2022-08-28T04:43:21.556Z,100145.59
2022-08-28T04:45:51.104Z,100144.56
2022-08-28T04:48:19.590Z,100151.75
2022-08-28T04:50:49.881Z,100153.94
2022-08-28T04:53:20.519Z,100151.00
2022-08-28T04:55:54.930Z,100152.97
2022-08-28T04:58:24.427Z,100154.63
2022-08-28T05:00:56.061Z,100152.94
2022-08-28T05:03:24.575Z,100151.09
2022-08-28T05:05:54.474Z,100147.69
2022-08-28T05:08:24.552Z,100158.44
2022-08-28T05:10:53.176Z,100154.78
2022-08-28T05:13:21.898Z,100157.84
2022-08-28T05:15:51.805Z,100162.91
2022-08-28T05:18:25.549Z,100162.38
2022-08-28T05:20:53.756Z,100167.34
2022-08-28T05:23:22.127Z,100173.13
2022-08-28T05:25:54.074Z,100182.31
2022-08-28T05:28:23.731Z,100175.16
2022-08-28T05:30:53.373Z,100179.22
2022-08-28T05:33:25.150Z,100186.22
2022-08-28T05:35:52.987Z,100192.22
2022-08-28T05:38:21.087Z,100187.69
2022-08-28T05:40:50.377Z,100188.97
2022-08-28T05:43:19.419Z,100190.72
2022-08-28T05:45:47.459Z,100185.69
2022-08-28T05:48:16.381Z,100182.56
2022-08-28T05:50:47.671Z,100195.28
2022-08-28T05:53:17.508Z,100189.00
2022-08-28T05:55:46.527Z,100199.72
2022-08-28T05:58:34.667Z,100199.13
2022-08-28T06:01:13.167Z,100200.00
2022-08-28T06:03:43.957Z,100202.75
2022-08-28T06:06:13.820Z,100206.59
2022-08-28T06:08:58.316Z,100203.47
2022-08-28T06:11:31.050Z,100195.03
2022-08-28T06:14:01.763Z,100202.06
2022-08-28T06:16:31.972Z,100201.50
2022-08-28T06:19:00.753Z,100204.94
2022-08-28T06:21:31.064Z,100197.75
2022-08-28T06:23:59.149Z,100200.78
2022-08-28T06:26:27.295Z,100198.72
2022-08-28T06:28:55.766Z,100213.69
2022-08-28T06:31:26.447Z,100201.66
2022-08-28T06:33:56.088Z,100200.88
2022-08-28T06:36:25.015Z,100220.75
2022-08-28T06:38:58.062Z,100215.41
2022-08-28T06:41:27.450Z,100212.38
2022-08-28T06:43:57.933Z,100212.78
2022-08-28T06:46:26.862Z,100203.38
2022-08-28T06:48:54.813Z,100209.16
2022-08-28T06:51:24.886Z,100210.09
2022-08-28T06:53:54.789Z,100215.41
2022-08-28T06:56:26.086Z,100215.72
2022-08-28T06:58:57.585Z,100208.28
2022-08-28T07:01:29.774Z,100209.16
2022-08-28T07:04:01.005Z,100213.91
2022-08-28T07:06:31.943Z,100202.31
2022-08-28T07:09:01.327Z,100218.97
2022-08-28T07:11:31.372Z,100225.09
2022-08-28T07:14:00.735Z,100229.72
2022-08-28T07:16:34.420Z,100217.41
2022-08-28T07:19:04.962Z,100229.13
2022-08-28T07:21:33.216Z,100220.34
2022-08-28T07:24:08.545Z,100231.63
2022-08-28T07:26:37.243Z,100236.97
2022-08-28T07:29:10.924Z,100229.75
2022-08-28T07:31:41.146Z,100228.44
2022-08-28T07:34:11.264Z,100242.19
2022-08-28T07:36:40.195Z,100232.91
2022-08-28T07:39:11.336Z,100240.88
2022-08-28T07:41:42.710Z,100243.97
2022-08-28T07:44:33.280Z,100240.97
2022-08-28T07:47:04.356Z,100245.97
2022-08-28T07:49:33.980Z,100244.81
2022-08-28T07:52:02.318Z,100247.13
2022-08-28T07:54:31.512Z,100249.94
2022-08-28T07:57:00.152Z,100246.13
2022-08-28T07:59:34.159Z,100249.38
2022-08-28T08:02:05.891Z,100259.16
2022-08-28T08:04:35.198Z,100262.19
2022-08-28T08:07:04.589Z,100256.50
2022-08-28T08:09:39.259Z,100263.56
2022-08-28T08:12:07.543Z,100262.75
2022-08-28T08:14:38.650Z,100271.00
2022-08-28T08:17:07.433Z,100271.13
2022-08-28T08:19:36.009Z,100273.28
2022-08-28T08:22:04.562Z,100270.69
2022-08-28T08:24:34.512Z,100266.13
2022-08-28T08:27:03.626Z,100280.09
2022-08-28T08:29:35.679Z,100271.16
2022-08-28T08:32:08.010Z,100290.16
2022-08-28T08:34:39.641Z,100279.34
2022-08-28T08:37:08.220Z,100281.66
2022-08-28T08:39:38.531Z,100277.31
2022-08-28T08:42:11.734Z,100282.31
2022-08-28T08:44:43.217Z,100276.94
2022-08-28T08:47:15.111Z,100275.78
2022-08-28T08:49:51.006Z,100279.31
2022-08-28T08:52:30.917Z,100270.22
2022-08-28T08:55:20.665Z,100279.84
2022-08-28T08:57:54.417Z,100285.72
2022-08-28T09:00:22.825Z,100275.78
2022-08-28T09:02:58.486Z,100280.16
2022-08-28T09:05:42.424Z,100290.06
2022-08-28T09:08:20.169Z,100294.81
2022-08-28T09:10:56.369Z,100289.81
2022-08-28T09:13:32.850Z,100301.34
2022-08-28T09:16:04.764Z,100291.59
2022-08-28T09:18:35.878Z,100304.31
2022-08-28T09:21:06.807Z,100290.28
2022-08-28T09:23:44.056Z,100292.03
2022-08-28T09:26:24.369Z,100291.41
2022-08-28T09:29:05.844Z,100300.47
2022-08-28T09:31:37.389Z,100292.03
2022-08-28T09:34:29.880Z,100303.56
2022-08-28T09:37:02.107Z,100305.59
2022-08-28T09:39:32.370Z,100305.66
2022-08-28T09:42:34.091Z,100300.63
2022-08-28T09:45:09.203Z,100298.22
2022-08-28T09:47:46.881Z,100302.88
2022-08-28T09:50:28.701Z,100300.94
2022-08-28T09:52:59.919Z,100300.06
2022-08-28T09:55:38.715Z,100304.06
2022-08-28T09:58:09.204Z,100304.34
2022-08-28T10:00:42.345Z,100301.59
2022-08-28T10:03:15.741Z,100303.41
2022-08-28T10:05:53.545Z,100297.19
2022-08-28T10:08:35.026Z,100295.97
2022-08-28T10:11:13.531Z,100304.22
2022-08-28T10:13:51.206Z,100303.03
2022-08-28T10:16:30.760Z,100298.09
2022-08-28T10:19:07.524Z,100297.59
2022-08-28T10:21:46.659Z,100300.72
2022-08-28T10:24:27.852Z,100295.41
2022-08-28T10:27:07.777Z,100299.84
2022-08-28T10:29:49.789Z,100299.97
2022-08-28T10:32:41.540Z,100299.38
2022-08-28T10:35:15.961Z,100296.41
2022-08-28T10:37:58.528Z,100304.66
2022-08-28T10:40:30.865Z,100292.50
2022-08-28T10:43:07.299Z,100294.47
2022-08-28T10:45:39.149Z,100292.94
2022-08-28T10:48:11.430Z,100295.22
2022-08-28T10:50:45.278Z,100297.88
2022-08-28T10:53:18.632Z,100293.72
2022-08-28T10:55:58.082Z,100289.53
2022-08-28T10:58:29.506Z,100288.72
2022-08-28T11:01:04.501Z,100285.19
2022-08-28T11:03:46.417Z,100285.88
2022-08-28T11:06:23.587Z,100280.81
2022-08-28T11:08:56.070Z,100279.47
2022-08-28T11:11:46.410Z,100282.56
2022-08-28T11:14:25.614Z,100276.97
2022-08-28T11:16:58.145Z,100283.56
2022-08-28T11:20:09.265Z,100271.44
2022-08-28T11:22:41.867Z,100264.59
2022-08-28T11:25:17.791Z,100269.00
2022-08-28T11:28:15.014Z,100263.88
2022-08-28T11:30:47.650Z,100277.94
2022-08-28T11:33:37.123Z,100282.94
2022-08-28T11:36:10.013Z,100276.06
2022-08-28T11:39:06.360Z,100282.47
2022-08-28T11:41:36.652Z,100278.72
2022-08-28T11:44:28.683Z,100286.34
2022-08-28T11:47:35.117Z,100287.50
2022-08-28T11:50:14.488Z,100285.69
2022-08-28T11:52:59.617Z,100283.56
2022-08-28T11:55:41.093Z,100278.53
2022-08-28T11:58:16.958Z,100279.53
2022-08-28T12:00:54.284Z,100288.59
2022-08-28T12:03:31.469Z,100293.03
2022-08-28T12:06:01.817Z,100285.34
2022-08-28T12:09:10.379Z,100283.97
2022-08-28T12:11:55.319Z,100283.00
2022-08-28T12:15:07.929Z,100270.97
2022-08-28T12:17:48.810Z,100276.47
2022-08-28T12:20:26.547Z,100262.91
2022-08-28T12:23:00.224Z,100262.72
2022-08-28T12:25:34.592Z,100254.94
2022-08-28T12:28:20.656Z,100266.72
2022-08-28T12:30:57.038Z,100259.59
2022-08-28T12:33:32.963Z,100263.69
2022-08-28T12:36:03.492Z,100266.25
2022-08-28T12:38:35.377Z,100268.34
2022-08-28T12:41:05.277Z,100278.88
2022-08-28T12:43:41.709Z,100285.44
2022-08-28T12:46:18.986Z,100260.75
2022-08-28T12:48:53.147Z,100244.28
2022-08-28T12:51:25.064Z,100245.00
2022-08-28T12:53:57.475Z,100252.38
2022-08-28T12:56:30.274Z,100252.34
2022-08-28T12:59:27.508Z,100253.97
2022-08-28T13:02:02.414Z,100252.19
2022-08-28T13:04:35.834Z,100244.66
2022-08-28T13:07:10.706Z,100240.09
2022-08-28T13:09:46.279Z,100240.28
2022-08-28T13:12:21.945Z,100236.38
2022-08-28T13:14:59.953Z,100251.16
2022-08-28T13:17:50.535Z,100247.22
2022-08-28T13:20:27.077Z,100253.53
2022-08-28T13:22:55.858Z,100243.59
2022-08-28T13:25:29.019Z,100234.69
2022-08-28T13:28:00.257Z,100224.16
2022-08-28T13:30:33.856Z,100221.16
2022-08-28T13:33:04.560Z,100235.09
2022-08-28T13:35:38.992Z,100217.56
2022-08-28T13:38:09.940Z,100229.06
2022-08-28T13:40:58.413Z,100219.81
2022-08-28T13:43:31.593Z,100206.38
2022-08-28T13:45:59.953Z,100207.19
2022-08-28T13:48:29.082Z,100203.91
2022-08-28T13:51:00.791Z,100219.84
2022-08-28T13:53:31.292Z,100225.28
2022-08-28T13:56:01.748Z,100213.38
2022-08-28T13:58:29.722Z,100203.53
2022-08-28T14:00:58.445Z,100201.97
2022-08-28T14:03:39.039Z,100202.16
2022-08-28T14:06:11.853Z,100210.84
2022-08-28T14:08:39.989Z,100215.16
2022-08-28T14:11:11.887Z,100206.03
2022-08-28T14:13:47.224Z,100198.25
2022-08-28T14:16:24.109Z,100216.31
2022-08-28T14:18:52.758Z,100198.25
2022-08-28T14:21:21.307Z,100192.31
2022-08-28T14:23:51.027Z,100196.06
2022-08-28T14:26:21.148Z,100197.50
2022-08-28T14:28:49.411Z,100193.94
2022-08-28T14:31:18.113Z,100199.00
2022-08-28T14:33:47.726Z,100196.56
2022-08-28T14:36:17.727Z,100197.47
2022-08-28T14:38:45.736Z,100196.81
2022-08-28T14:41:14.881Z,100194.44
2022-08-28T14:43:45.143Z,100193.19
2022-08-28T14:46:16.924Z,100187.50
2022-08-28T14:48:45.258Z,100194.69
2022-08-28T14:51:13.898Z,100188.63
2022-08-28T14:53:42.207Z,100187.34
2022-08-28T14:56:12.050Z,100190.06
2022-08-28T14:58:42.445Z,100198.38
2022-08-28T15:01:12.370Z,100189.53
2022-08-28T15:03:40.489Z,100190.81
2022-08-28T15:06:10.921Z,100193.63
2022-08-28T15:08:39.874Z,100196.00
2022-08-28T15:11:08.782Z,100191.59
2022-08-28T15:13:36.736Z,100194.88
2022-08-28T15:16:10.456Z,100197.88
2022-08-28T15:18:46.619Z,100196.09
2022-08-28T15:21:19.099Z,100189.00
2022-08-28T15:23:49.809Z,100183.28
2022-08-28T15:26:19.035Z,100186.13
2022-08-28T15:28:47.727Z,100169.50
2022-08-28T15:31:16.916Z,100170.53
2022-08-28T15:33:46.609Z,100171.19
2022-08-28T15:36:15.367Z,100171.56
2022-08-28T15:39:01.453Z,100175.03
2022-08-28T15:41:29.835Z,100166.88
2022-08-28T15:44:00.144Z,100181.16
2022-08-28T15:46:31.700Z,100171.91
2022-08-28T15:49:02.665Z,100159.88
2022-08-28T15:51:32.631Z,100168.69
2022-08-28T15:54:01.498Z,100163.94
2022-08-28T15:56:30.260Z,100160.75
2022-08-28T15:58:58.344Z,100158.38
2022-08-28T16:01:26.449Z,100160.78
2022-08-28T16:03:55.034Z,100168.19
2022-08-28T16:06:24.544Z,100157.03
2022-08-28T16:08:52.714Z,100167.91
2022-08-28T16:11:23.234Z,100171.19
2022-08-28T16:13:53.207Z,100173.81
2022-08-28T16:16:21.800Z,100177.34
2022-08-28T16:18:50.202Z,100177.78
2022-08-28T16:21:20.254Z,100177.44
2022-08-28T16:23:51.942Z,100176.47
2022-08-28T16:26:20.750Z,100175.75
2022-08-28T16:28:49.139Z,100166.00
2022-08-28T16:31:19.615Z,100174.81
2022-08-28T16:33:51.127Z,100160.38
2022-08-28T16:36:19.857Z,100160.00
2022-08-28T16:39:03.456Z,100170.66
2022-08-28T16:41:32.708Z,100176.50
2022-08-28T16:44:01.607Z,100170.00
2022-08-28T16:46:30.226Z,100169.69
2022-08-28T16:48:59.708Z,100171.41
2022-08-28T16:51:29.249Z,100170.44
2022-08-28T16:53:58.797Z,100165.38
2022-08-28T16:56:26.781Z,100176.03
2022-08-28T16:58:56.068Z,100165.81
2022-08-28T17:01:25.414Z,100175.75
2022-08-28T17:03:54.630Z,100161.53
2022-08-28T17:06:25.354Z,100151.00
2022-08-28T17:08:56.998Z,100156.22
2022-08-28T17:11:27.684Z,100153.66
2022-08-28T17:13:57.517Z,100158.41
2022-08-28T17:16:26.598Z,100159.63
2022-08-28T17:18:55.061Z,100162.69
2022-08-28T17:21:41.552Z,100156.97
2022-08-28T17:26:40.948Z,100150.72
2022-08-28T17:29:08.865Z,100151.56
2022-08-28T17:31:37.575Z,100148.91
2022-08-28T17:34:07.322Z,100151.69
2022-08-28T17:36:38.107Z,100148.69
2022-08-28T17:39:11.589Z,100161.88
2022-08-28T17:41:43.499Z,100161.44
2022-08-28T17:44:14.006Z,100153.63
2022-08-28T17:46:45.014Z,100168.59
2022-08-28T17:49:13.373Z,100166.91
2022-08-28T17:51:43.413Z,100168.38
2022-08-28T17:54:13.439Z,100175.41
2022-08-28T17:56:43.905Z,100171.94
2022-08-28T17:59:12.716Z,100170.09
2022-08-28T18:01:42.450Z,100165.56
2022-08-28T18:04:10.905Z,100170.34
2022-08-28T18:06:39.568Z,100166.25
2022-08-28T18:09:10.456Z,100168.03
2022-08-28T18:11:39.146Z,100170.06
2022-08-28T18:14:09.499Z,100174.31
2022-08-28T18:16:39.180Z,100175.28
2022-08-28T18:19:09.796Z,100177.56
2022-08-28T18:21:38.595Z,100185.88
2022-08-28T18:24:07.660Z,100187.28
2022-08-28T18:26:35.901Z,100185.25
2022-08-28T18:29:04.678Z,100185.09
2022-08-28T18:31:34.582Z,100185.50
2022-08-28T18:34:03.747Z,100187.72
2022-08-28T18:36:32.677Z,100182.03
2022-08-28T18:39:02.093Z,100188.38
2022-08-28T18:41:41.565Z,100195.84
2022-08-28T18:44:15.366Z,100195.91
2022-08-28T18:46:45.887Z,100202.88
2022-08-28T18:49:14.912Z,100218.44
2022-08-28T18:51:44.713Z,100218.13
2022-08-28T18:54:14.336Z,100221.47
2022-08-28T18:56:45.526Z,100229.56
2022-08-28T18:59:13.888Z,100226.78
2022-08-28T19:01:42.092Z,100233.75
2022-08-28T19:04:11.928Z,100232.09
2022-08-28T19:06:41.799Z,100234.09
2022-08-28T19:09:10.296Z,100236.56
2022-08-28T19:11:49.420Z,100242.84
2022-08-28T19:14:17.824Z,100245.97
2022-08-28T19:16:46.240Z,100247.78
2022-08-28T19:19:16.181Z,100250.94
2022-08-28T19:21:45.645Z,100255.22
2022-08-28T19:24:16.603Z,100254.03
2022-08-28T19:26:46.199Z,100264.59
2022-08-28T19:29:15.109Z,100271.84
2022-08-28T19:31:43.965Z,100264.56
2022-08-28T19:34:13.119Z,100270.13
2022-08-28T19:36:42.576Z,100274.78
2022-08-28T19:39:10.911Z,100284.66
2022-08-28T19:41:40.829Z,100285.16
2022-08-28T19:44:08.891Z,100294.72
2022-08-28T19:46:38.843Z,100291.59
2022-08-28T19:49:07.847Z,100290.78
2022-08-28T19:51:37.313Z,100304.28
2022-08-28T19:54:11.121Z,100301.72
2022-08-28T19:56:40.016Z,100298.22
2022-08-28T19:59:09.154Z,100301.28
2022-08-28T20:01:39.546Z,100304.41
2022-08-28T20:04:09.574Z,100309.34
2022-08-28T20:06:38.967Z,100317.06
2022-08-28T20:09:12.721Z,100316.19
2022-08-28T20:11:42.229Z,100308.53
2022-08-28T20:14:10.387Z,100316.63
2022-08-28T20:16:42.852Z,100324.34
2022-08-28T20:19:12.625Z,100317.38
2022-08-28T20:21:43.715Z,100318.03
2022-08-28T20:24:17.712Z,100318.63
2022-08-28T20:26:46.151Z,100327.78
2022-08-28T20:29:15.062Z,100327.88
2022-08-28T20:31:47.417Z,100326.84
2022-08-28T20:34:19.503Z,100324.84
2022-08-28T20:36:48.239Z,100320.41
2022-08-28T20:39:20.276Z,100328.91
2022-08-28T20:41:51.170Z,100333.22
2022-08-28T20:44:20.962Z,100320.56
2022-08-28T20:46:51.271Z,100333.81
2022-08-28T20:49:22.503Z,100332.47
2022-08-28T20:52:01.355Z,100335.75
2022-08-28T20:54:32.943Z,100330.44
2022-08-28T20:57:03.677Z,100331.63
2022-08-28T20:59:39.536Z,100338.66
2022-08-28T21:02:10.824Z,100332.25
2022-08-28T21:04:39.903Z,100343.63
2022-08-28T21:07:08.434Z,100347.53
2022-08-28T21:10:03.828Z,100348.38
2022-08-28T21:12:26.335Z,100348.44
2022-08-28T21:14:54.684Z,100349.03
2022-08-28T21:17:28.812Z,100356.84
2022-08-28T21:19:58.605Z,100356.78
2022-08-28T21:22:26.829Z,100360.25
2022-08-28T21:24:56.130Z,100366.72
2022-08-28T21:27:24.048Z,100377.84
2022-08-28T21:29:51.956Z,100377.59
2022-08-28T21:32:20.471Z,100374.56
2022-08-28T21:34:48.709Z,100376.22
2022-08-28T21:37:17.014Z,100381.72
2022-08-28T21:39:45.240Z,100383.97
2022-08-28T21:42:14.668Z,100375.69
2022-08-28T21:44:48.649Z,100376.66
2022-08-28T21:47:21.525Z,100383.88
2022-08-28T21:49:50.514Z,100383.84
2022-08-28T21:52:19.259Z,100387.00
2022-08-28T21:54:48.075Z,100394.91
2022-08-28T21:57:18.612Z,100390.78
2022-08-28T21:59:46.578Z,100397.81
2022-08-28T22:02:14.521Z,100393.00
2022-08-28T22:04:42.730Z,100399.41
2022-08-28T22:07:12.226Z,100395.97
2022-08-28T22:09:40.071Z,100397.50
2022-08-28T22:12:09.391Z,100395.53
2022-08-28T22:14:39.790Z,100402.94
2022-08-28T22:17:11.800Z,100399.88
2022-08-28T22:19:40.905Z,100394.19
2022-08-28T22:22:26.812Z,100407.34
2022-08-28T22:24:55.407Z,100399.19
2022-08-28T22:27:23.534Z,100401.25
2022-08-28T22:29:53.133Z,100412.16
2022-08-28T22:32:25.805Z,100404.72
2022-08-28T22:34:54.133Z,100408.28
2022-08-28T22:37:23.060Z,100406.38
2022-08-28T22:39:51.316Z,100405.81
2022-08-28T22:42:19.939Z,100405.25
2022-08-28T22:44:47.839Z,100408.81
2022-08-28T22:47:19.029Z,100410.03
2022-08-28T22:49:47.385Z,100410.16
2022-08-28T22:52:15.480Z,100405.72
2022-08-28T22:54:43.632Z,100405.66
2022-08-28T22:57:12.228Z,100407.03
2022-08-28T22:59:40.311Z,100407.69
2022-08-28T23:02:08.393Z,100402.19
2022-08-28T23:04:37.920Z,100408.41
2022-08-28T23:07:06.365Z,100402.03
2022-08-28T23:09:36.075Z,100400.13
2022-08-28T23:12:05.180Z,100406.81
2022-08-28T23:14:33.402Z,100403.78
2022-08-28T23:17:01.920Z,100405.25
2022-08-28T23:19:30.317Z,100398.91
2022-08-28T23:21:59.940Z,100404.72
2022-08-28T23:24:28.529Z,100408.72
2022-08-28T23:26:56.494Z,100409.94
2022-08-28T23:29:27.542Z,100398.19
2022-08-28T23:31:55.901Z,100403.94
2022-08-28T23:34:24.124Z,100407.41
2022-08-28T23:36:52.191Z,100399.53
2022-08-28T23:39:21.395Z,100397.41
2022-08-28T23:41:49.768Z,100394.94
2022-08-28T23:44:17.832Z,100395.63
2022-08-28T23:46:46.332Z,100393.78
2022-08-28T23:49:14.445Z,100399.53
2022-08-28T23:51:46.225Z,100387.13
2022-08-28T23:54:14.395Z,100398.97
2022-08-28T23:56:45.038Z,100390.84
2022-08-28T23:59:13.095Z,100388.63
